Time;durP1;ratioP1;P1;durP2;ratioP2;P2;SDS_P1;SDS_P2;PMS_P1;PMS_P2;Temp;Humidity;BMP_temperature;BMP_pressure;BME280_temperature;BME280_humidity;BME280_pressure;Samples;Min_cycle;Max_cycle;Signal;HPM_P1;HPM_P2
2022/07/12 00:02:23;;;;;;;5.68;4.53;;;;;;;17.64;75.39;102296.88;5097454;27;20508;-63
2022/07/12 00:04:49;;;;;;;6.45;4.65;;;;;;;17.57;75.87;102295.59;5129566;27;20039;-63
2022/07/12 00:07:14;;;;;;;5.22;4.72;;;;;;;17.64;75.68;102295.03;5129572;27;20386;-63
2022/07/12 00:09:39;;;;;;;5.55;4.32;;;;;;;17.66;75.42;102294.94;5112498;27;20064;-63
2022/07/12 00:12:05;;;;;;;5.63;4.95;;;;;;;17.61;75.69;102280.94;5130990;27;20106;-63
2022/07/12 00:14:31;;;;;;;6.50;4.70;;;;;;;17.72;75.44;102289.13;5095971;27;20027;-63
2022/07/12 00:16:57;;;;;;;5.20;4.28;;;;;;;17.62;75.61;102274.63;5130185;27;20038;-63
2022/07/12 00:19:25;;;;;;;5.45;4.40;;;;;;;17.67;75.42;102280.50;5111302;27;20043;-62
2022/07/12 00:21:51;;;;;;;8.05;4.38;;;;;;;17.61;75.69;102272.88;5113617;27;20402;-62
2022/07/12 00:24:17;;;;;;;8.23;5.30;;;;;;;17.58;75.54;102276.63;5114008;27;20026;-63
2022/07/12 00:26:45;;;;;;;5.85;4.20;;;;;;;17.56;75.86;102283.97;5113835;27;20031;-62
2022/07/12 00:29:11;;;;;;;4.93;4.40;;;;;;;17.49;75.69;102278.13;5112987;27;20041;-62
2022/07/12 00:31:39;;;;;;;5.20;4.10;;;;;;;17.45;75.81;102273.09;5113343;27;20046;-62
2022/07/12 00:34:05;;;;;;;8.70;3.97;;;;;;;17.30;76.59;102284.91;5113397;27;20035;-63
2022/07/12 00:36:32;;;;;;;5.38;4.40;;;;;;;17.36;76.35;102287.19;5130566;27;20023;-63
2022/07/12 00:38:58;;;;;;;5.88;4.55;;;;;;;17.32;76.19;102277.59;5130435;27;20497;-63
2022/07/12 00:41:25;;;;;;;6.03;3.80;;;;;;;17.36;75.72;102281.81;5131901;27;20370;-63
2022/07/12 00:43:52;;;;;;;7.05;4.55;;;;;;;17.43;76.14;102286.63;5112783;28;20023;-62
2022/07/12 00:46:21;;;;;;;9.85;4.50;;;;;;;17.35;76.38;102280.91;5130819;27;20885;-63
2022/07/12 00:48:47;;;;;;;5.38;3.97;;;;;;;17.28;75.86;102276.94;5110512;28;20110;-63
2022/07/12 00:51:13;;;;;;;4.50;4.10;;;;;;;17.28;76.36;102278.78;5109184;28;20070;-63
2022/07/12 00:53:39;;;;;;;7.00;3.88;;;;;;;17.26;76.19;102278.88;5110186;28;20047;-63
2022/07/12 00:56:05;;;;;;;5.30;3.45;;;;;;;17.22;76.67;102280.06;5113227;28;20061;-62
2022/07/12 00:58:31;;;;;;;5.97;3.88;;;;;;;17.14;76.67;102279.72;5115850;28;20574;-63
2022/07/12 01:00:59;;;;;;;7.05;3.60;;;;;;;17.06;76.84;102265.91;5097677;28;20110;-63
2022/07/12 01:03:27;;;;;;;4.90;3.67;;;;;;;16.98;76.95;102269.16;5114411;28;20057;-63
2022/07/12 01:05:53;;;;;;;4.60;3.72;;;;;;;16.96;76.99;102269.22;5116565;28;20385;-63
2022/07/12 01:08:19;;;;;;;3.75;3.22;;;;;;;16.89;77.58;102284.06;5117527;28;20024;-63
2022/07/12 01:10:44;;;;;;;3.50;3.20;;;;;;;16.85;77.05;102274.47;5116820;28;20382;-62
2022/07/12 01:13:11;;;;;;;3.97;3.13;;;;;;;16.85;77.34;102271.78;5114132;28;20084;-63
2022/07/12 01:15:37;;;;;;;3.30;3.00;;;;;;;16.83;76.84;102281.78;5085871;28;20479;-63
2022/07/12 01:18:04;;;;;;;5.43;3.15;;;;;;;16.84;77.02;102278.13;5117646;27;20024;-63
2022/07/12 01:20:29;;;;;;;6.43;2.80;;;;;;;16.89;76.39;102272.44;5117933;27;20023;-63
2022/07/12 01:22:58;;;;;;;3.30;2.80;;;;;;;16.88;76.46;102278.78;5098880;28;20540;-62
2022/07/12 01:25:24;;;;;;;5.20;2.83;;;;;;;16.68;75.91;102270.19;5113722;28;20023;-63
2022/07/12 01:27:51;;;;;;;4.47;2.80;;;;;;;16.73;76.43;102284.16;5114527;28;20068;-63
2022/07/12 01:30:17;;;;;;;3.38;3.00;;;;;;;16.64;76.45;102290.16;5117882;27;20054;-63
2022/07/12 01:32:42;;;;;;;4.57;2.90;;;;;;;16.65;76.36;102283.84;5115953;28;20471;-63
2022/07/12 01:35:09;;;;;;;4.70;2.80;;;;;;;16.62;76.51;102301.94;5115764;28;20039;-63
2022/07/12 01:37:40;;;;;;;3.28;2.53;;;;;;;16.63;76.38;102288.44;5115670;28;20102;-63
2022/07/12 01:40:08;;;;;;;3.08;2.58;;;;;;;16.66;76.11;102298.13;5114185;28;20415;-63
2022/07/12 01:42:35;;;;;;;6.03;2.80;;;;;;;16.66;75.95;102295.44;5116511;27;20473;-63
2022/07/12 01:45:00;;;;;;;3.25;2.92;;;;;;;16.64;76.12;102294.66;5115437;28;20477;-63
2022/07/12 01:47:28;;;;;;;4.00;2.95;;;;;;;16.61;75.99;102301.09;5114178;27;20034;-63
2022/07/12 01:49:54;;;;;;;3.28;2.95;;;;;;;16.57;75.89;102303.13;5116004;28;20024;-63
2022/07/12 01:52:20;;;;;;;3.35;2.90;;;;;;;16.49;76.10;102278.59;5136410;27;20045;-62
2022/07/12 01:54:46;;;;;;;4.00;2.85;;;;;;;16.55;76.09;102290.75;5135003;27;20105;-63
2022/07/12 01:57:12;;;;;;;4.40;2.97;;;;;;;16.54;76.30;102284.53;5135191;27;20019;-62
2022/07/12 01:59:38;;;;;;;5.40;3.03;;;;;;;16.44;76.31;102283.41;5137578;27;20087;-63
2022/07/12 02:02:04;;;;;;;4.35;2.35;;;;;;;16.53;76.00;102289.97;5137740;27;20472;-62
2022/07/12 02:04:32;;;;;;;4.25;2.60;;;;;;;16.53;76.09;102281.91;5137019;27;20024;-62
2022/07/12 02:06:58;;;;;;;4.70;2.70;;;;;;;16.49;76.31;102283.09;5135973;27;20027;-63
2022/07/12 02:09:24;;;;;;;3.80;2.70;;;;;;;16.47;76.44;102280.53;5133990;27;20031;-62
2022/07/12 02:11:50;;;;;;;3.33;2.85;;;;;;;16.47;76.33;102288.59;5115246;27;20140;-63
2022/07/12 02:14:16;;;;;;;5.07;3.00;;;;;;;16.43;76.35;102284.34;5133064;27;20042;-63
2022/07/12 02:16:43;;;;;;;5.32;2.90;;;;;;;16.42;76.53;102282.63;5133660;27;20019;-63
2022/07/12 02:19:10;;;;;;;4.22;3.05;;;;;;;16.38;76.45;102273.03;5131611;27;20019;-63
2022/07/12 02:21:36;;;;;;;3.13;2.90;;;;;;;16.37;76.30;102274.00;5134110;27;20027;-62
2022/07/12 02:24:02;;;;;;;4.15;3.00;;;;;;;16.28;76.65;102274.59;5134442;27;20575;-63
2022/07/12 02:26:28;;;;;;;5.05;2.80;;;;;;;16.32;76.50;102271.63;5134307;27;20382;-63
2022/07/12 02:28:53;;;;;;;3.50;2.60;;;;;;;16.26;76.38;102263.09;5133498;27;20020;-63
2022/07/12 02:31:19;;;;;;;6.15;2.80;;;;;;;16.23;76.35;102263.28;5132872;27;20019;-63
2022/07/12 02:33:44;;;;;;;4.88;2.80;;;;;;;16.15;76.90;102273.66;5130026;27;20034;-63
2022/07/12 02:36:10;;;;;;;4.10;2.88;;;;;;;16.19;76.63;102283.25;5133506;27;20030;-63
2022/07/12 02:38:36;;;;;;;3.65;2.80;;;;;;;16.15;76.50;102279.91;5133992;27;20019;-63
2022/07/12 02:41:01;;;;;;;4.40;3.20;;;;;;;16.16;76.46;102275.41;5114797;27;20493;-62
2022/07/12 02:43:29;;;;;;;4.32;3.05;;;;;;;16.11;77.01;102286.41;5133544;27;20041;-63
2022/07/12 02:46:02;;;;;;;3.58;2.70;;;;;;;16.05;76.91;102284.97;5114082;27;20027;-62
2022/07/12 02:48:28;;;;;;;4.07;2.72;;;;;;;16.03;77.25;102284.25;5112354;27;20434;-63
2022/07/12 02:50:53;;;;;;;3.03;2.80;;;;;;;16.02;76.93;102285.19;5133787;27;20070;-63
2022/07/12 02:53:19;;;;;;;3.45;2.92;;;;;;;16.06;76.91;102293.88;5114848;27;20035;-62
2022/07/12 02:55:45;;;;;;;4.50;3.13;;;;;;;16.03;76.85;102288.72;5132221;27;20019;-63
2022/07/12 02:58:11;;;;;;;3.90;3.50;;;;;;;16.02;76.86;102276.25;5114746;27;20027;-63
2022/07/12 03:00:37;;;;;;;3.20;2.90;;;;;;;15.96;77.12;102277.50;5114205;27;20128;-63
2022/07/12 03:03:02;;;;;;;3.95;3.10;;;;;;;15.99;76.77;102281.81;5095645;27;20550;-62
2022/07/12 03:05:28;;;;;;;4.43;3.03;;;;;;;15.95;76.73;102278.47;5133076;27;20062;-63
2022/07/12 03:07:54;;;;;;;3.70;3.03;;;;;;;15.89;77.06;102290.47;5132894;27;20019;-63
2022/07/12 03:10:20;;;;;;;3.38;2.90;;;;;;;15.92;76.77;102278.69;5133212;27;20058;-62
2022/07/12 03:12:46;;;;;;;3.92;3.05;;;;;;;15.83;76.96;102271.22;5114503;27;20478;-63
2022/07/12 03:15:11;;;;;;;4.82;3.13;;;;;;;15.83;76.87;102277.44;5113741;27;20122;-62
2022/07/12 03:17:37;;;;;;;4.07;3.20;;;;;;;15.75;77.45;102278.88;5074116;27;20047;-63
2022/07/12 03:20:06;;;;;;;5.32;3.42;;;;;;;15.77;77.62;102274.28;5131428;27;20473;-63
2022/07/12 03:22:32;;;;;;;3.65;3.35;;;;;;;15.67;77.71;102260.50;5114104;27;20015;-63
2022/07/12 03:24:58;;;;;;;4.28;3.25;;;;;;;15.77;77.64;102277.81;5133041;27;20025;-63
2022/07/12 03:27:23;;;;;;;5.25;3.58;;;;;;;15.59;77.68;102274.41;5130451;27;20381;-63
2022/07/12 03:29:49;;;;;;;4.95;3.67;;;;;;;15.72;77.65;102277.22;5096931;27;20096;-62
2022/07/12 03:32:16;;;;;;;4.75;3.42;;;;;;;15.71;77.48;102282.72;5131607;27;20027;-63
2022/07/12 03:34:42;;;;;;;4.82;3.63;;;;;;;15.65;77.77;102274.03;5115220;27;20047;-63
2022/07/12 03:37:07;;;;;;;4.47;3.72;;;;;;;15.60;77.70;102260.03;5130515;27;20047;-63
2022/07/12 03:39:33;;;;;;;4.35;3.90;;;;;;;15.66;77.80;102278.44;5132739;27;20031;-63
2022/07/12 03:41:59;;;;;;;4.57;3.72;;;;;;;15.67;78.13;102277.50;5132828;27;20041;-63
2022/07/12 03:44:30;;;;;;;5.93;4.15;;;;;;;15.62;78.18;102289.47;5132084;27;20023;-63
2022/07/12 03:46:58;;;;;;;5.28;4.38;;;;;;;15.63;78.10;102284.00;5097745;27;20051;-63
2022/07/12 03:49:23;;;;;;;4.97;4.53;;;;;;;15.66;78.21;102272.22;5113759;27;20023;-63
2022/07/12 03:51:49;;;;;;;4.45;4.05;;;;;;;15.67;78.03;102273.94;5131806;27;20047;-63
2022/07/12 03:54:14;;;;;;;6.20;4.82;;;;;;;15.61;79.14;102282.34;5112479;27;20046;-63
2022/07/12 03:59:24;;;;;;;6.07;5.47;;;;;;;15.67;78.86;102282.88;5102755;27;20119;-63
2022/07/12 04:01:49;;;;;;;6.63;5.25;;;;;;;15.70;79.24;102286.31;5113500;27;20489;-62
2022/07/12 04:04:17;;;;;;;6.68;5.97;;;;;;;15.70;79.24;102284.50;5093554;27;20040;-63
2022/07/12 04:06:42;;;;;;;11.68;5.95;;;;;;;15.64;79.64;102277.66;5113307;27;20023;-62
2022/07/12 04:09:08;;;;;;;7.65;5.80;;;;;;;15.67;79.70;102272.13;5096704;27;20119;-63
2022/07/12 04:11:33;;;;;;;6.40;5.82;;;;;;;15.71;79.73;102278.19;5095871;27;20057;-63
2022/07/12 04:14:04;;;;;;;7.00;5.68;;;;;;;15.61;80.04;102267.13;5131578;27;20039;-63
2022/07/12 04:16:32;;;;;;;7.40;6.35;;;;;;;15.59;80.51;102273.56;5131629;27;20066;-63
2022/07/12 04:18:58;;;;;;;6.55;5.95;;;;;;;15.55;79.62;102274.69;5110973;27;20034;-63
2022/07/12 04:21:24;;;;;;;6.82;6.22;;;;;;;15.48;80.71;102274.22;5129907;27;20027;-63
2022/07/12 04:23:51;;;;;;;6.95;6.25;;;;;;;15.57;80.83;102283.50;5129909;27;20068;-62
2022/07/12 04:26:17;;;;;;;6.90;6.28;;;;;;;15.58;81.27;102295.94;5131707;27;20042;-63
2022/07/12 04:28:43;;;;;;;7.05;6.32;;;;;;;15.60;81.44;102289.53;5113834;27;20039;-63
2022/07/12 04:31:09;;;;;;;8.05;6.22;;;;;;;15.66;80.76;102282.94;5111639;27;20033;-63
2022/07/12 04:33:35;;;;;;;7.80;7.10;;;;;;;15.70;81.13;102287.19;5110586;27;20022;-63
2022/07/12 04:36:02;;;;;;;11.50;7.30;;;;;;;15.77;81.49;102293.06;5130681;27;20038;-63
2022/07/12 04:38:27;;;;;;;8.48;7.68;;;;;;;15.83;81.52;102293.53;5128944;27;20038;-63
2022/07/12 04:40:53;;;;;;;7.85;7.05;;;;;;;15.87;80.99;102299.56;5131931;27;20478;-63
2022/07/12 04:43:18;;;;;;;8.13;7.32;;;;;;;15.91;81.33;102298.41;5111143;27;20065;-63
2022/07/12 04:45:44;;;;;;;7.97;7.28;;;;;;;15.92;81.77;102294.78;5131161;27;20035;-62
2022/07/12 04:48:10;;;;;;;7.43;6.72;;;;;;;15.96;81.19;102298.13;5128984;27;20123;-63
2022/07/12 04:50:35;;;;;;;7.55;6.85;;;;;;;16.01;81.01;102299.56;5131550;27;20043;-62
2022/07/12 04:53:01;;;;;;;7.38;6.78;;;;;;;16.03;81.73;102299.44;5095861;28;20071;-63
2022/07/12 04:55:27;;;;;;;8.60;7.07;;;;;;;16.13;81.61;102301.47;5113544;28;20437;-62
2022/07/12 04:57:53;;;;;;;7.35;6.75;;;;;;;16.17;81.81;102299.44;5113127;28;20486;-63
2022/07/12 05:00:18;;;;;;;8.23;6.28;;;;;;;16.21;82.01;102300.13;5131941;28;20072;-63
2022/07/12 05:02:44;;;;;;;7.75;6.95;;;;;;;16.27;82.04;102299.75;5130259;28;20041;-62
2022/07/12 05:05:14;;;;;;;7.72;7.03;;;;;;;16.35;82.37;102295.63;5113458;28;20119;-63
2022/07/12 05:07:39;;;;;;;7.78;7.00;;;;;;;16.38;82.45;102305.25;5130969;28;20031;-63
2022/07/12 05:10:06;;;;;;;13.48;7.00;;;;;;;16.46;82.59;102299.41;5131658;28;20034;-63
2022/07/12 05:12:33;;;;;;;9.52;6.63;;;;;;;16.46;82.68;102305.63;5131011;28;20095;-63
2022/07/12 05:14:59;;;;;;;8.50;6.68;;;;;;;16.66;81.89;102308.88;5131530;28;20363;-63
2022/07/12 05:17:27;;;;;;;9.02;6.47;;;;;;;16.72;82.20;102314.69;5130025;28;20026;-63
2022/07/12 05:19:55;;;;;;;7.88;6.40;;;;;;;16.76;82.56;102315.38;5110559;28;20031;-63
2022/07/12 05:22:20;;;;;;;8.68;6.57;;;;;;;16.86;82.67;102316.50;5129190;28;20022;-63
2022/07/12 05:24:46;;;;;;;7.13;6.47;;;;;;;16.94;82.53;102318.66;5131200;28;20386;-63
2022/07/12 05:27:12;;;;;;;11.52;8.82;;;;;;;17.00;81.25;102315.56;5130669;27;20075;-63
2022/07/12 05:29:39;;;;;;;9.90;8.90;;;;;;;17.13;82.14;102331.78;5110265;28;20027;-62
2022/07/12 05:32:07;;;;;;;9.40;8.50;;;;;;;17.21;82.06;102332.97;5112408;28;20450;-63
2022/07/12 05:34:33;;;;;;;10.38;9.25;;;;;;;17.22;82.34;102328.44;5129952;28;20027;-62
2022/07/12 05:36:58;;;;;;;10.70;9.70;;;;;;;17.32;80.81;102337.59;5112112;28;20031;-62
2022/07/12 05:39:23;;;;;;;12.65;10.77;;;;;;;17.39;81.05;102341.63;5131085;28;20114;-63
2022/07/12 05:41:49;;;;;;;11.25;10.15;;;;;;;17.49;80.88;102341.84;5111129;27;20432;-63
2022/07/12 05:44:18;;;;;;;11.55;10.43;;;;;;;17.60;80.83;102351.88;5114124;27;20500;-62
2022/07/12 05:46:45;;;;;;;14.20;12.73;;;;;;;17.67;79.53;102354.03;5099263;27;20050;-63
2022/07/12 05:49:10;;;;;;;13.77;12.27;;;;;;;17.72;79.55;102356.41;5134993;27;20019;-63
2022/07/12 05:54:22;;;;;;;14.05;12.75;;;;;;;17.86;78.71;102360.88;5119847;27;20046;-63
2022/07/12 05:56:48;;;;;;;14.93;13.07;;;;;;;18.02;78.44;102369.59;5116436;27;20510;-63
2022/07/12 05:59:16;;;;;;;14.23;12.73;;;;;;;18.17;77.66;102375.72;5133418;27;20666;-63
2022/07/12 06:01:44;;;;;;;13.43;12.20;;;;;;;18.19;79.81;102371.09;5116710;27;20401;-63
2022/07/12 06:04:10;;;;;;;14.73;12.40;;;;;;;18.28;79.11;102365.06;5133132;27;20098;-63
2022/07/12 06:06:38;;;;;;;14.63;12.00;;;;;;;18.43;78.16;102373.00;5132170;27;20027;-63
2022/07/12 06:09:04;;;;;;;13.90;12.23;;;;;;;18.48;78.04;102373.56;5132322;27;20126;-63
2022/07/12 06:11:29;;;;;;;13.07;11.73;;;;;;;18.50;77.48;102377.84;5113629;27;20536;-63
2022/07/12 06:13:55;;;;;;;13.73;12.32;;;;;;;18.53;78.57;102383.03;5133893;27;20435;-62
2022/07/12 06:16:22;;;;;;;13.13;11.18;;;;;;;18.62;77.71;102373.41;5132533;27;20027;-63
2022/07/12 06:18:48;;;;;;;12.65;11.45;;;;;;;18.74;76.83;102375.25;5131593;27;20023;-63
2022/07/12 06:21:14;;;;;;;12.05;10.77;;;;;;;18.80;77.65;102380.19;5114343;27;20034;-63
2022/07/12 06:23:39;;;;;;;14.80;12.15;;;;;;;18.87;76.32;102374.34;5112687;27;20092;-63
2022/07/12 06:26:05;;;;;;;12.93;11.57;;;;;;;18.92;75.34;102381.09;5128908;27;20031;-63
2022/07/12 06:28:31;;;;;;;14.40;10.75;;;;;;;19.01;75.89;102380.41;5131538;27;20072;-64
2022/07/12 06:30:56;;;;;;;12.98;11.13;;;;;;;19.02;74.82;102379.44;5098926;27;20039;-63
2022/07/12 06:33:23;;;;;;;13.35;12.05;;;;;;;19.05;74.68;102379.22;5114764;27;20027;-63
2022/07/12 06:35:51;;;;;;;12.25;10.60;;;;;;;19.08;75.54;102379.97;5116122;27;20027;-63
2022/07/12 06:38:17;;;;;;;11.90;10.40;;;;;;;19.09;75.07;102379.88;5098514;27;20063;-63
2022/07/12 06:40:43;;;;;;;12.68;11.38;;;;;;;19.15;75.48;102379.41;5133247;27;20078;-63
2022/07/12 06:43:12;;;;;;;11.48;10.38;;;;;;;19.22;76.88;102388.75;5115402;27;20435;-63
2022/07/12 06:45:38;;;;;;;15.05;11.77;;;;;;;19.36;74.83;102379.63;5132436;27;20027;-63
2022/07/12 06:48:05;;;;;;;14.98;12.77;;;;;;;19.36;75.32;102382.31;5133732;27;20057;-63
2022/07/12 06:50:31;;;;;;;16.42;13.07;;;;;;;19.37;74.10;102388.56;5115074;27;20062;-63
2022/07/12 06:52:58;;;;;;;17.60;12.77;;;;;;;19.37;74.26;102388.56;5133463;27;20039;-63
2022/07/12 06:55:26;;;;;;;18.73;14.05;;;;;;;19.49;74.82;102382.22;5132681;27;20060;-63
2022/07/12 06:57:53;;;;;;;18.00;13.75;;;;;;;19.53;73.65;102383.72;5125193;27;20027;-63
2022/07/12 07:00:19;;;;;;;21.23;13.38;;;;;;;19.52;74.68;102390.09;5115111;27;20019;-63
2022/07/12 07:02:45;;;;;;;15.48;13.95;;;;;;;19.52;73.44;102377.44;5133027;27;20072;-63
2022/07/12 07:05:15;;;;;;;14.55;13.15;;;;;;;19.53;73.00;102386.44;5095025;27;20490;-63
2022/07/12 07:07:40;;;;;;;15.65;14.05;;;;;;;19.54;73.17;102379.19;5131449;27;20534;-63
2022/07/12 07:10:06;;;;;;;17.65;12.75;;;;;;;19.70;74.49;102386.00;5131878;27;20043;-63
2022/07/12 07:12:34;;;;;;;14.85;12.05;;;;;;;19.70;73.06;102380.59;5112118;27;20050;-63
2022/07/12 07:15:00;;;;;;;16.38;10.68;;;;;;;19.85;72.49;102383.09;5114726;27;20461;-63
2022/07/12 07:17:25;;;;;;;14.20;10.20;;;;;;;19.89;71.75;102379.19;5097746;27;20034;-63
2022/07/12 07:19:50;;;;;;;11.35;8.57;;;;;;;19.97;72.16;102374.03;5129505;27;20041;-63
2022/07/12 07:22:16;;;;;;;8.82;7.88;;;;;;;20.13;71.17;102382.66;5096310;27;20027;-63
2022/07/12 07:24:41;;;;;;;12.45;9.15;;;;;;;20.08;69.09;102387.56;5111991;27;20031;-63
2022/07/12 07:27:07;;;;;;;9.27;7.97;;;;;;;20.25;70.06;102383.53;5129365;27;20039;-63
2022/07/12 07:32:17;;;;;;;9.52;8.00;;;;;;;20.44;68.27;102382.88;5132059;27;20046;-63
2022/07/12 07:34:43;;;;;;;9.43;6.15;;;;;;;20.56;69.07;102384.66;5113448;27;20031;-63
2022/07/12 07:37:09;;;;;;;7.32;5.82;;;;;;;20.57;67.14;102383.66;5068928;27;20035;-63
2022/07/12 07:39:35;;;;;;;6.20;5.13;;;;;;;20.59;66.81;102373.59;5109789;27;20034;-63
2022/07/12 07:42:01;;;;;;;5.45;4.88;;;;;;;20.69;66.27;102376.41;5109855;27;20039;-63
2022/07/12 07:44:26;;;;;;;5.00;4.45;;;;;;;20.74;67.92;102379.59;5131950;27;20015;-63
2022/07/12 07:46:51;;;;;;;4.93;4.43;;;;;;;20.71;65.32;102379.00;5079342;27;20042;-63
2022/07/12 07:49:17;;;;;;;3.90;3.58;;;;;;;20.70;66.75;102379.97;5097815;27;20512;-63
2022/07/12 07:51:43;;;;;;;5.22;4.75;;;;;;;20.72;66.56;102375.28;5108278;28;20414;-63
2022/07/12 07:54:09;;;;;;;4.85;4.30;;;;;;;20.71;66.08;102373.59;5109973;28;20032;-63
2022/07/12 07:56:34;;;;;;;4.22;3.92;;;;;;;20.80;67.76;102370.97;5109466;28;20066;-63
2022/07/12 07:59:00;;;;;;;5.20;4.60;;;;;;;20.82;66.18;102371.72;5109987;28;20059;-63
2022/07/12 08:04:11;;;;;;;4.70;4.13;;;;;;;20.91;66.17;102371.91;5109907;28;20031;-63
2022/07/12 08:06:37;;;;;;;5.53;5.03;;;;;;;20.86;64.90;102378.59;5105853;28;20030;-63
2022/07/12 08:09:03;;;;;;;5.00;4.40;;;;;;;20.91;65.25;102371.91;5107146;28;20035;-63
2022/07/12 08:11:28;;;;;;;8.60;4.65;;;;;;;20.92;65.24;102374.50;5109402;28;20028;-63
2022/07/12 08:13:54;;;;;;;7.43;5.13;;;;;;;20.98;64.85;102375.84;5108810;27;20085;-63
2022/07/12 08:16:19;;;;;;;5.57;5.00;;;;;;;21.00;64.63;102369.34;5108960;28;20028;-62
2022/07/12 08:18:45;;;;;;;6.40;5.80;;;;;;;20.98;64.02;102374.00;5109774;28;20031;-63
2022/07/12 08:21:10;;;;;;;6.78;5.63;;;;;;;20.98;64.15;102374.00;5108741;28;20039;-62
2022/07/12 08:23:37;;;;;;;6.82;5.90;;;;;;;21.01;65.16;102376.44;5090670;28;20494;-62
2022/07/12 08:26:03;;;;;;;8.43;5.95;;;;;;;21.06;64.52;102381.47;5107682;28;20118;-63
2022/07/12 08:28:28;;;;;;;7.32;6.38;;;;;;;20.99;63.56;102374.84;5074850;28;20126;-64
2022/07/12 08:30:54;;;;;;;5.90;4.75;;;;;;;21.11;64.82;102373.81;5110612;28;20038;-63
2022/07/12 08:33:20;;;;;;;4.88;4.47;;;;;;;21.23;65.77;102382.75;5106518;28;20489;-63
2022/07/12 08:35:45;;;;;;;5.85;5.35;;;;;;;21.24;63.27;102385.34;5108858;28;20032;-63
2022/07/12 08:38:12;;;;;;;7.63;4.25;;;;;;;21.42;63.83;102388.38;5089656;28;20035;-63
2022/07/12 08:40:37;;;;;;;5.57;5.07;;;;;;;21.46;63.97;102384.41;5108830;28;20027;-63
2022/07/12 08:43:03;;;;;;;7.85;6.65;;;;;;;21.38;62.68;102386.91;5092205;28;20024;-63
2022/07/12 08:45:28;;;;;;;8.07;5.82;;;;;;;21.39;63.09;102379.69;5107003;28;20051;-63
2022/07/12 08:47:54;;;;;;;4.78;4.30;;;;;;;21.45;64.40;102387.28;5107949;28;20035;-63
2022/07/12 08:50:22;;;;;;;4.93;4.40;;;;;;;21.44;63.05;102382.84;5095270;28;20059;-63
2022/07/12 08:52:51;;;;;;;5.35;4.85;;;;;;;21.52;64.34;102391.16;5130527;27;20031;-63
2022/07/12 08:55:31;;;;;;;7.20;5.70;;;;;;;21.54;63.22;102383.78;5132093;27;20430;-63
2022/07/12 08:58:02;;;;;;;4.82;4.32;;;;;;;21.62;61.59;102394.81;5112218;28;20030;-63
2022/07/12 09:00:29;;;;;;;5.07;4.68;;;;;;;21.60;61.37;102399.50;5127460;28;20060;-63
2022/07/12 09:03:03;;;;;;;5.35;4.85;;;;;;;21.70;62.19;102402.28;5130588;28;20026;-63
2022/07/12 09:05:30;;;;;;;6.28;4.32;;;;;;;21.94;62.39;102396.59;5130091;28;20027;-63
2022/07/12 09:08:09;;;;;;;6.53;5.55;;;;;;;22.06;62.39;102398.25;5129312;28;20034;-63
2022/07/12 09:10:51;;;;;;;6.55;5.88;;;;;;;22.15;60.33;102402.00;5112357;28;20034;-63
2022/07/12 09:13:39;;;;;;;5.65;4.78;;;;;;;22.25;59.77;102402.94;5131688;28;20019;-63
2022/07/12 09:16:20;;;;;;;7.07;5.18;;;;;;;22.36;60.24;102404.72;5131087;28;20486;-63
2022/07/12 09:18:46;;;;;;;9.07;5.15;;;;;;;22.38;59.09;102399.97;5135101;27;20027;-64
2022/07/12 09:21:29;;;;;;;7.30;6.47;;;;;;;22.40;60.03;102395.28;5135372;27;20090;-63
2022/07/12 09:23:59;;;;;;;6.00;5.32;;;;;;;22.52;60.28;102399.63;5135964;27;20124;-63
2022/07/12 09:26:31;;;;;;;6.40;5.75;;;;;;;22.54;59.58;102385.94;5117379;27;20027;-63
2022/07/12 09:29:09;;;;;;;6.13;5.53;;;;;;;22.65;58.92;102396.69;5135890;27;20041;-63
2022/07/12 09:37:16;;;;;;;6.47;5.65;;;;;;;22.85;56.81;102384.88;5119079;27;20034;-63
2022/07/12 09:39:43;;;;;;;7.30;4.78;;;;;;;22.98;57.22;102390.06;5117214;27;20027;-63
2022/07/12 09:42:12;;;;;;;9.95;5.60;;;;;;;22.86;56.80;102388.47;5135085;27;20389;-63
2022/07/12 09:44:39;;;;;;;5.90;4.28;;;;;;;23.05;58.06;102384.94;5116885;27;20084;-63
2022/07/12 09:47:15;;;;;;;5.88;4.75;;;;;;;23.04;57.33;102385.94;5099120;27;20367;-63
2022/07/12 09:49:43;;;;;;;4.38;3.55;;;;;;;23.01;54.63;102391.66;5116424;27;20035;-63
2022/07/12 09:52:12;;;;;;;3.40;3.10;;;;;;;23.19;55.28;102384.53;5134612;27;20035;-63
2022/07/12 09:54:41;;;;;;;4.13;3.67;;;;;;;23.25;55.74;102397.53;5116499;27;20031;-63
2022/07/12 09:57:21;;;;;;;4.57;4.13;;;;;;;23.34;54.33;102385.81;5134976;27;20022;-63
2022/07/12 09:59:49;;;;;;;6.78;3.92;;;;;;;23.49;55.64;102378.09;5116909;27;20118;-63
2022/07/12 10:02:17;;;;;;;5.88;3.95;;;;;;;23.55;55.36;102374.78;5116554;27;20493;-63
2022/07/12 10:04:45;;;;;;;7.63;3.72;;;;;;;23.58;55.15;102377.22;5135092;27;20031;-63
2022/07/12 10:07:13;;;;;;;6.53;4.00;;;;;;;23.73;54.99;102372.22;5116202;27;20027;-63
2022/07/12 10:09:44;;;;;;;5.43;3.58;;;;;;;23.81;53.61;102382.38;5134713;27;20034;-64
2022/07/12 10:12:10;;;;;;;4.57;3.78;;;;;;;23.76;53.53;102368.34;5134936;27;20437;-63
2022/07/12 10:14:41;;;;;;;6.78;3.83;;;;;;;23.85;52.99;102362.03;5134745;27;20034;-63
2022/07/12 10:17:09;;;;;;;4.40;3.15;;;;;;;23.96;53.98;102353.72;5133851;27;20485;-64
2022/07/12 10:19:36;;;;;;;4.23;3.83;;;;;;;24.02;52.99;102368.59;5115741;27;20542;-63
2022/07/12 10:22:03;;;;;;;4.82;4.18;;;;;;;24.13;52.98;102360.25;5134111;27;20079;-63
2022/07/12 10:24:31;;;;;;;3.63;2.95;;;;;;;24.23;53.07;102366.50;5134808;27;20052;-63
2022/07/12 10:27:15;;;;;;;4.35;3.50;;;;;;;24.33;52.88;102363.75;5134643;27;20106;-63
2022/07/12 10:29:41;;;;;;;4.18;3.53;;;;;;;24.47;53.29;102349.69;5132829;27;20027;-63
2022/07/12 10:32:27;;;;;;;6.45;4.97;;;;;;;24.47;53.33;102362.41;5133920;27;20416;-63
2022/07/12 10:35:00;;;;;;;6.68;5.20;;;;;;;24.46;53.63;102358.00;5116119;27;20102;-64
2022/07/12 10:37:26;;;;;;;5.88;4.38;;;;;;;24.55;52.38;102362.53;5133921;27;20386;-64
2022/07/12 10:40:13;;;;;;;4.10;3.80;;;;;;;24.62;52.46;102360.03;5134296;27;20083;-64
2022/07/12 10:42:39;;;;;;;5.93;3.45;;;;;;;24.70;51.33;102360.13;5134004;27;20076;-64
2022/07/12 10:45:13;;;;;;;2.97;2.75;;;;;;;24.73;50.27;102359.84;5134290;27;20102;-64
2022/07/12 10:47:59;;;;;;;4.78;4.10;;;;;;;24.76;51.14;102361.41;5133817;27;20026;-63
2022/07/12 10:50:45;;;;;;;5.45;3.97;;;;;;;24.80;51.28;102355.50;5115765;27;20543;-63
2022/07/12 10:53:40;;;;;;;7.13;4.03;;;;;;;24.73;50.29;102357.09;5133034;27;20031;-63
2022/07/12 10:56:27;;;;;;;6.05;3.15;;;;;;;24.80;50.51;102360.09;5115443;27;20121;-63
2022/07/12 10:58:59;;;;;;;10.23;3.15;;;;;;;24.87;47.81;102355.75;5134176;27;20045;-63
2022/07/12 11:01:27;;;;;;;3.75;2.88;;;;;;;24.96;48.19;102360.25;5133687;27;20015;-63
2022/07/12 11:04:06;;;;;;;3.63;2.90;;;;;;;24.96;48.53;102360.25;5133679;27;20079;-63
2022/07/12 11:06:36;;;;;;;4.25;3.08;;;;;;;25.03;49.40;102357.75;5133302;27;20054;-63
2022/07/12 11:09:07;;;;;;;4.78;3.50;;;;;;;24.98;49.15;102360.13;5133703;27;20030;-63
2022/07/12 11:11:39;;;;;;;4.88;3.72;;;;;;;25.05;52.05;102355.75;5133699;27;20140;-63
2022/07/12 11:14:04;;;;;;;4.97;3.40;;;;;;;25.01;49.81;102344.31;5133283;27;20026;-63
2022/07/12 11:16:30;;;;;;;4.80;3.70;;;;;;;25.18;49.66;102352.66;5133275;27;20027;-63
2022/07/12 11:19:00;;;;;;;5.97;3.60;;;;;;;25.31;49.66;102353.13;5133724;27;20027;-64
2022/07/12 11:21:28;;;;;;;4.15;3.35;;;;;;;25.36;49.21;102354.38;5133272;27;20106;-64
2022/07/12 11:23:56;;;;;;;4.32;3.22;;;;;;;25.38;48.33;102346.03;5115636;27;20051;-63
2022/07/12 11:26:22;;;;;;;4.15;2.95;;;;;;;25.60;51.58;102347.41;5132411;27;20037;-63
2022/07/12 11:28:48;;;;;;;5.57;3.78;;;;;;;25.67;48.07;102340.28;5098243;27;20118;-64
2022/07/12 11:31:18;;;;;;;4.45;3.53;;;;;;;25.76;47.88;102346.66;5091220;27;20031;-63
2022/07/12 11:33:48;;;;;;;5.68;4.40;;;;;;;25.65;46.86;102338.75;5132948;27;20494;-64
2022/07/12 11:36:14;;;;;;;10.60;4.45;;;;;;;25.85;48.45;102333.97;5132577;27;20104;-63
2022/07/12 11:38:42;;;;;;;6.75;4.45;;;;;;;25.78;47.75;102334.59;5133184;27;20019;-63
2022/07/12 11:41:09;;;;;;;6.35;3.78;;;;;;;25.74;47.64;102329.63;5132918;27;20367;-64